Date,TemperatureHighF,TemperatureAvgF,TemperatureLowF,DewpointHighF,DewpointAvgF,DewpointLowF,HumidityHigh,HumidityAvg,HumidityLow,PressureMaxIn,PressureMinIn,WindSpeedMaxMPH,WindSpeedAvgMPH,GustSpeedMaxMPH,PrecipitationSumIn
2014-1-1,0,0,0,50,50,50,0,0,100,30.21,30.01,0,0,0,0.00
2014-1-2,0,0,0,50,50,50,0,0,100,30.01,29.83,0,0,0,0.00
2014-1-3,0,0,0,50,50,50,0,0,100,30.25,29.96,0,0,0,0.00
2014-1-4,66,37,0,57,51,47,81,40,61,30.21,30.03,5,1,9,0.22
2014-1-5,88,70,59,67,56,42,100,68,20,30.04,29.93,6,1,8,0.00
2014-1-6,68,62,51,68,54,20,100,80,29,30.30,29.93,9,1,18,0.01
2014-1-7,55,47,41,26,4,-10,39,18,10,30.41,30.25,14,6,21,0.00
2014-1-8,64,52,41,48,37,14,69,56,31,30.36,30.19,14,6,20,0.00
2014-1-9,71,63,57,66,59,46,100,87,64,30.24,30.11,8,3,11,0.01
2014-1-10,81,70,64,71,65,60,100,86,50,30.16,30.02,4,1,10,0.00
2014-1-11,78,70,66,71,67,63,100,92,63,30.06,29.92,6,2,14,0.02
2014-1-12,77,66,59,66,40,12,99,49,10,30.17,29.99,7,2,11,0.00
2014-1-13,83,67,57,69,54,38,100,67,29,30.13,29.95,4,1,11,0.00
2014-1-14,71,66,61,70,64,57,99,94,79,30.01,29.89,4,1,10,0.13
2014-1-15,72,61,57,59,43,21,93,56,15,30.06,29.92,8,1,17,0.02
2014-1-16,63,55,49,51,20,2,79,31,10,30.15,29.97,8,3,17,0.04
2014-1-17,73,58,46,50,28,5,72,39,10,30.21,30.10,3,0,7,0.00
2014-1-18,63,56,47,54,23,-1,81,35,10,30.27,30.09,7,2,14,0.00
2014-1-19,76,59,46,52,39,23,87,51,14,30.23,30.11,3,0,8,0.00
2014-1-20,79,64,55,60,53,32,100,73,21,30.15,30.02,4,0,7,0.01
2014-1-21,80,66,59,68,56,33,100,74,36,30.03,29.84,7,1,16,0.07
2014-1-22,60,55,48,36,26,3,51,34,10,30.18,29.92,6,2,17,0.00
2014-1-23,70,54,44,37,24,-1,65,37,10,30.33,30.14,11,3,15,0.00
2014-1-24,65,53,47,31,12,-5,49,22,10,30.44,30.25,15,7,24,0.14
2014-1-25,74,57,48,56,36,14,90,49,10,30.26,30.03,10,2,14,0.00
2014-1-26,66,62,59,61,58,53,100,86,67,30.05,29.95,5,1,9,0.00
2014-1-27,76,66,62,68,61,50,100,85,60,30.01,29.92,4,0,10,0.09
2014-1-28,79,67,60,73,60,54,100,83,47,30.04,29.94,4,1,9,0.01
2014-1-29,63,57,49,62,53,46,100,89,54,30.16,29.95,17,6,21,0.04
2014-1-30,54,51,49,54,51,48,100,98,92,30.15,30.04,12,5,15,0.18
2014-1-31,64,58,53,64,58,53,99,99,99,30.08,29.97,8,4,11,0.67
2014-2-1,86,69,61,78,65,61,100,89,44,30.09,30.00,4,1,9,0.01
2014-2-2,88,72,63,75,63,50,100,80,28,30.12,30.00,4,0,8,0.01
2014-2-3,86,72,64,75,66,61,100,86,45,30.08,29.99,4,0,8,0.01
2014-2-4,90,74,66,75,67,56,100,83,32,30.08,29.97,4,1,8,0.01
2014-2-5,80,72,68,78,71,68,100,95,77,30.05,29.96,4,1,11,0.00
2014-2-6,77,68,58,73,66,56,100,93,79,30.11,29.99,14,2,19,0.00
2014-2-7,70,60,54,62,58,52,100,93,64,30.14,30.06,15,6,20,0.00
2014-2-8,69,62,60,68,62,60,100,98,90,30.10,30.02,11,3,16,0.01
2014-2-9,77,64,58,61,53,34,99,75,22,30.12,30.01,8,2,11,0.00
2014-2-10,82,63,0,57,51,21,97,69,11,30.10,29.91,7,2,9,0.00
2014-2-11,81,68,60,62,50,36,99,59,20,29.96,29.89,7,1,8,0.00
2014-2-12,74,66,61,65,60,52,100,84,46,29.92,29.61,8,2,17,0.58
2014-2-13,68,62,55,66,50,37,99,67,33,29.87,29.61,7,2,16,0.01
2014-2-14,76,60,53,50,34,8,79,47,10,29.98,29.84,7,1,10,0.00
2014-2-15,76,64,54,61,41,11,83,50,10,30.04,29.82,5,2,15,0.00
2014-2-16,76,62,53,50,35,10,85,46,10,30.09,30.00,4,1,8,0.00
2014-2-17,86,66,55,57,38,10,86,47,10,30.11,30.03,5,1,8,0.00
2014-2-18,85,70,60,62,42,16,92,45,10,30.13,30.02,5,1,8,0.00
2014-2-19,85,71,62,64,54,42,94,61,23,30.07,29.95,4,1,8,0.00
2014-2-20,85,73,63,67,60,47,100,70,28,30.03,29.91,5,1,13,0.01
2014-2-21,81,72,69,74,69,65,100,90,61,29.95,29.87,8,2,15,0.00
2014-2-22,86,74,69,79,70,65,100,89,53,29.99,29.89,2,0,6,0.14
2014-2-23,81,72,68,77,69,66,100,92,68,29.97,29.87,4,0,9,0.00
2014-2-24,86,74,67,74,67,57,100,83,39,29.95,29.80,5,1,13,0.00
2014-2-25,83,70,64,71,65,57,99,86,50,29.94,29.85,4,0,9,0.00
2014-2-26,80,69,63,74,67,62,100,95,71,29.86,29.62,4,1,11,0.08
2014-2-27,73,62,55,66,54,41,99,77,38,29.85,29.66,5,2,13,0.05
2014-2-28,75,62,54,47,30,8,71,36,10,30.00,29.82,10,2,14,0.00
2014-3-1,81,67,56,55,41,17,88,47,10,30.11,29.95,10,2,13,0.00
2014-3-2,86,70,60,65,53,35,100,63,18,30.09,29.94,4,1,8,0.00
2014-3-3,83,72,63,69,61,47,100,74,30,29.98,29.87,4,1,9,0.01
2014-3-4,87,72,66,71,64,50,100,81,31,29.93,29.85,8,1,12,0.01
2014-3-5,89,74,65,70,60,41,100,70,19,29.92,29.82,8,2,11,0.00
2014-3-6,71,68,66,70,67,63,100,96,76,29.87,29.59,6,1,9,1.39
2014-3-7,72,64,56,68,54,42,100,71,37,29.94,29.65,8,2,14,0.00
2014-3-8,75,60,49,56,42,25,83,57,18,30.07,29.93,13,2,17,0.00
2014-3-9,82,67,57,62,52,37,100,67,22,30.09,29.98,7,1,10,0.00
2014-3-10,82,69,62,60,46,23,86,52,13,30.03,29.89,4,1,7,0.00
2014-3-11,81,70,62,69,56,28,100,66,19,29.91,29.73,4,1,8,0.00
2014-3-12,84,74,68,75,67,58,100,82,42,29.77,29.62,6,1,14,0.06
2014-3-13,72,64,58,63,33,6,81,39,10,30.08,29.75,9,3,21,0.00
2014-3-14,83,66,53,52,34,14,64,37,10,30.16,30.02,10,3,14,0.00
2014-3-15,87,72,60,58,41,18,72,42,10,30.07,29.90,4,1,6,0.00
2014-3-16,81,72,65,63,56,48,71,57,35,29.91,29.65,9,3,18,0.00
2014-3-17,73,72,68,73,69,64,100,92,76,29.66,29.52,8,3,18,2.09
2014-3-18,79,69,62,72,50,18,100,60,10,29.92,29.53,10,2,17,0.37
2014-3-19,79,67,59,61,49,32,100,58,19,30.01,29.90,7,2,11,0.00
2014-3-20,84,70,64,58,52,38,80,57,21,29.96,29.86,7,2,12,0.00
2014-3-21,91,74,65,61,53,24,79,54,10,29.96,29.85,6,2,9,0.00
2014-3-22,86,75,66,73,58,44,100,61,25,29.96,29.86,3,0,6,0.00
2014-3-23,88,75,68,73,65,53,100,75,30,29.93,29.85,4,0,8,0.00
2014-3-24,71,68,65,71,67,64,100,95,86,29.96,29.79,8,1,11,0.98
2014-3-25,77,69,64,76,55,25,99,69,22,29.94,29.72,9,2,22,0.31
2014-3-26,71,60,51,34,10,-3,39,15,10,30.18,29.94,17,6,24,0.00
2014-3-27,67,61,55,59,51,32,82,69,37,30.19,30.07,8,3,13,0.06
2014-3-28,80,71,64,66,60,52,86,68,39,30.08,29.88,7,2,14,0.00
2014-3-29,77,71,68,75,70,63,100,96,68,29.91,29.77,6,2,17,0.38
2014-3-30,75,68,61,68,44,14,99,51,10,29.99,29.82,8,3,16,0.00
2014-3-31,84,68,60,56,37,11,82,42,10,30.05,29.97,7,1,10,0.00
2014-4-1,87,72,60,63,46,20,91,51,10,30.06,29.98,6,1,8,0.00
2014-4-2,84,73,63,65,52,37,99,56,19,30.08,29.98,7,1,8,0.00
2014-4-3,84,73,63,63,54,40,93,56,23,30.02,29.91,7,1,12,0.00
2014-4-4,87,74,67,70,59,47,100,64,27,29.93,29.87,7,1,12,0.00
2014-4-5,90,78,68,79,58,30,100,63,15,29.93,29.83,2,0,5,0.01
2014-4-6,86,76,69,70,62,52,100,67,34,29.91,29.81,7,1,15,0.00
2014-4-7,85,77,72,73,68,64,90,73,52,29.82,29.71,8,3,21,0.00
2014-4-8,76,73,69,75,68,45,100,86,42,29.79,29.61,7,2,16,0.53
2014-4-9,77,69,64,50,37,14,57,34,10,30.06,29.77,5,2,15,0.00
2014-4-10,88,73,62,55,36,15,77,34,10,30.16,30.06,8,2,11,0.00
2014-4-11,90,75,64,60,40,22,65,33,10,30.13,29.99,4,1,8,0.00
2014-4-12,92,78,68,67,53,27,94,50,12,30.05,29.94,6,1,12,0.00
2014-4-13,91,77,67,64,52,24,85,48,10,29.99,29.86,6,2,10,0.00
2014-4-14,87,78,70,70,64,55,95,64,35,29.91,29.76,7,1,12,0.00
2014-4-15,88,76,68,76,69,55,100,79,48,29.85,29.69,7,2,17,0.01
2014-4-16,82,69,56,55,46,27,72,48,15,29.99,29.84,13,4,17,0.00
2014-4-17,88,74,66,71,58,50,99,62,29,30.03,29.93,13,5,17,0.20
2014-4-18,80,72,69,72,69,62,100,90,58,29.98,29.79,8,2,14,0.19
2014-4-19,82,72,66,72,55,35,100,60,21,29.88,29.76,6,1,13,0.01
2014-4-20,82,70,64,60,51,31,87,56,17,29.95,29.85,6,2,11,0.01
2014-4-21,81,69,64,58,49,33,75,51,19,29.97,29.84,11,3,14,0.00
2014-4-22,86,73,65,58,47,21,74,46,10,29.88,29.75,5,1,8,0.00
2014-4-23,88,76,67,59,48,27,73,44,12,29.85,29.76,2,0,8,0.00
2014-4-24,88,77,67,69,53,31,95,52,13,29.91,29.80,2,0,5,0.00
2014-4-25,91,79,68,75,54,34,100,52,15,29.91,29.81,1,0,4,0.00
2014-4-26,91,80,70,66,54,35,80,48,15,29.92,29.81,4,0,10,0.00
2014-4-27,91,80,71,72,61,45,91,57,21,29.90,29.80,8,1,11,0.00
2014-4-28,90,80,74,75,67,57,100,67,34,29.85,29.74,8,2,14,0.00
2014-4-29,90,82,75,74,66,55,94,62,32,29.88,29.72,7,2,14,0.00
2014-4-30,91,82,76,72,67,62,84,62,40,29.93,29.79,7,2,14,0.00
2014-5-1,91,82,74,76,67,59,90,62,39,29.91,29.82,5,1,11,0.00
2014-5-2,87,77,72,76,72,64,99,88,55,29.83,29.75,10,2,21,2.20
2014-5-3,78,72,68,78,70,62,99,94,78,29.92,29.75,8,2,13,0.65
2014-5-4,88,76,66,66,46,20,90,45,10,29.99,29.88,8,2,14,0.00
2014-5-5,92,79,70,65,44,21,84,39,10,29.96,29.85,7,2,10,0.00
2014-5-6,94,82,70,60,45,26,61,33,10,29.92,29.84,5,1,8,0.00
2014-5-7,94,83,73,63,48,26,69,37,10,30.00,29.87,4,1,11,0.00
2014-5-8,94,82,72,66,52,26,80,41,11,30.06,29.96,6,1,11,0.00
2014-5-9,92,82,73,71,55,32,94,45,13,30.05,29.93,6,1,14,0.00
2014-5-10,91,82,74,66,57,31,75,47,13,30.01,29.91,7,2,12,0.00
2014-5-11,95,83,76,67,57,29,72,45,12,30.02,29.90,4,1,9,0.00
2014-5-12,94,83,74,64,49,25,68,35,10,30.01,29.89,8,2,11,0.00
2014-5-13,94,82,74,77,60,29,100,54,10,29.94,29.83,9,3,17,0.35
2014-5-14,94,82,74,75,65,36,95,62,16,29.91,29.80,11,2,16,0.22
2014-5-15,92,81,74,75,66,53,92,62,30,29.89,29.78,6,2,14,0.13
2014-5-16,82,75,71,61,36,15,64,31,10,30.00,29.84,11,3,18,0.00
2014-5-17,87,76,68,53,31,14,55,23,10,30.04,29.93,13,5,18,0.00
2014-5-18,90,77,68,47,35,19,46,24,10,30.03,29.92,10,5,14,0.00
2014-5-19,90,80,69,58,39,21,66,30,10,30.04,29.96,8,3,14,0.00
2014-5-20,91,80,70,65,46,22,82,38,10,30.08,29.98,8,2,12,0.00
2014-5-21,92,80,70,58,43,23,66,34,10,30.07,29.98,6,2,11,0.00
2014-5-22,92,81,71,62,47,25,63,36,10,30.04,29.93,6,1,11,0.00
2014-5-23,95,83,72,72,54,28,79,44,10,30.00,29.92,3,0,9,0.00
2014-5-24,94,84,74,76,58,33,91,51,12,29.99,29.89,3,0,8,0.00
2014-5-25,96,85,75,76,58,24,90,48,10,29.98,29.88,10,1,14,0.04
2014-5-26,96,84,75,65,51,28,68,39,10,30.06,29.93,17,1,23,0.05
2014-5-27,94,81,74,71,59,34,85,53,13,30.03,29.91,9,1,13,0.02
2014-5-28,96,84,75,68,55,29,77,44,10,29.95,29.85,5,1,8,0.00
2014-5-29,95,83,75,70,57,38,79,47,15,29.91,29.82,6,1,13,0.00
2014-5-30,97,82,73,70,59,31,85,54,11,29.91,29.82,6,1,11,0.15
2014-5-31,98,83,74,71,58,27,83,53,10,29.91,29.82,11,1,14,0.06
2014-6-1,99,81,75,74,63,29,91,62,10,29.93,29.86,12,2,16,0.14
2014-6-2,86,80,76,72,63,52,86,59,32,29.96,29.88,8,4,14,0.00
2014-6-3,90,81,74,61,48,26,63,36,11,29.95,29.85,4,2,9,0.00
2014-6-4,95,83,74,60,42,25,54,29,10,29.88,29.79,4,1,8,0.00
2014-6-5,94,84,74,71,53,29,81,41,11,29.86,29.77,7,1,9,0.00
2014-6-6,98,87,77,70,49,28,77,36,10,29.89,29.77,3,0,8,0.00
2014-6-7,97,87,77,68,50,29,73,36,10,29.92,29.78,4,0,8,0.00
2014-6-8,97,86,75,70,49,29,85,37,10,29.91,29.79,16,0,22,0.07
2014-6-9,98,86,76,73,53,30,79,41,10,29.89,29.76,3,0,8,0.01
2014-6-10,97,86,73,70,54,30,88,42,10,29.91,29.83,8,0,17,0.69
2014-6-11,94,81,73,75,64,44,100,62,18,29.90,29.80,4,1,10,0.50
2014-6-12,93,83,74,72,62,45,86,54,20,29.90,29.81,5,1,11,0.01
2014-6-13,94,84,75,71,63,44,82,53,18,29.91,29.82,4,1,10,0.13
2014-6-14,98,85,75,69,57,31,74,45,10,29.98,29.85,8,1,11,0.01
2014-6-15,98,84,75,68,56,32,77,46,10,30.02,29.90,10,1,15,0.01
2014-6-16,100,85,76,64,48,26,65,37,10,30.05,29.93,12,1,17,0.01
2014-6-17,97,85,76,69,51,27,79,40,10,30.03,29.93,7,2,13,0.00
2014-6-18,99,81,74,72,58,27,91,55,10,30.00,29.93,9,2,14,0.19
2014-6-19,97,87,74,74,52,29,96,42,10,30.00,29.93,4,1,7,0.01
2014-6-20,98,87,76,75,52,30,82,40,10,29.96,29.86,2,0,5,0.00
2014-6-21,97,87,80,64,50,29,58,34,10,29.91,29.81,2,0,6,0.00
2014-6-22,98,88,80,64,49,29,58,33,10,29.89,29.79,2,0,7,0.00
2014-6-23,98,88,81,64,50,28,54,33,10,29.98,29.82,2,0,8,0.00
2014-6-24,98,88,80,64,47,27,57,31,10,30.03,29.94,2,0,6,0.00
2014-6-25,100,89,81,68,51,30,61,36,10,30.03,29.90,4,0,8,0.00
2014-6-26,100,90,81,68,49,29,62,31,10,30.00,29.85,4,1,8,0.00
2014-6-27,100,87,75,73,54,27,87,43,10,30.00,29.90,12,1,18,0.33
2014-6-28,99,88,77,75,55,27,84,43,10,30.04,29.94,5,0,10,0.00
2014-6-29,101,91,84,71,52,31,65,33,10,30.03,29.91,6,1,14,0.00
2014-6-30,98,86,75,76,54,30,92,46,10,29.99,29.77,12,1,21,1.09
2014-7-1,99,88,79,74,57,32,84,41,10,29.85,29.74,7,1,14,0.01
2014-7-2,101,89,80,68,52,30,61,34,10,29.84,29.76,8,1,14,0.00
2014-7-3,98,87,80,67,57,36,59,39,13,29.98,29.83,4,1,10,0.01
2014-7-4,99,87,80,70,55,31,72,40,10,30.00,29.92,2,0,8,0.01
2014-7-5,100,87,79,70,54,29,70,39,10,30.00,29.93,4,0,8,0.00
2014-7-6,98,86,78,70,55,29,74,41,10,29.98,29.90,4,1,9,0.00
2014-7-7,93,83,77,73,61,38,80,50,17,30.01,29.89,4,1,7,0.00
2014-7-8,99,86,79,68,56,32,69,42,10,30.03,29.93,5,1,10,0.00
2014-7-9,98,85,78,74,60,30,87,48,10,30.02,29.92,3,0,6,0.00
2014-7-10,100,88,79,71,53,29,73,40,10,30.01,29.93,7,0,10,0.00
2014-7-11,100,86,78,71,54,29,79,42,10,30.02,29.94,5,1,10,0.00
2014-7-12,101,86,75,74,56,29,87,45,10,30.01,29.93,8,2,17,0.09
2014-7-13,100,87,77,70,53,29,78,41,10,30.00,29.90,11,1,15,0.00
2014-7-14,100,88,79,70,51,30,72,35,10,29.97,29.89,4,0,8,0.00
2014-7-15,96,86,76,73,60,30,86,47,11,29.92,29.82,8,1,14,0.41
2014-7-16,93,82,77,76,66,54,93,61,27,29.87,29.79,5,1,15,0.25
2014-7-17,99,88,81,68,54,29,59,36,10,29.90,29.80,4,1,11,0.01
2014-7-18,99,89,79,64,46,27,59,29,10,29.95,29.87,2,0,5,0.00
2014-7-19,100,89,80,69,51,27,68,32,10,29.95,29.87,5,1,10,0.00
2014-7-20,100,90,80,68,52,31,64,33,10,29.96,29.87,6,1,10,0.00
2014-7-21,102,89,79,69,52,31,70,36,10,29.95,29.86,7,1,12,0.00
2014-7-22,99,87,77,68,54,31,71,39,10,29.95,29.86,6,1,8,0.00
2014-7-23,102,89,80,76,52,28,86,38,10,29.96,29.88,2,0,8,0.00
2014-7-24,100,89,79,70,50,30,72,32,10,29.94,29.85,7,0,11,0.31
2014-7-25,101,90,83,68,50,30,59,30,10,29.97,29.89,4,0,7,0.06
2014-7-26,103,90,82,67,51,30,58,32,10,29.99,29.90,3,0,5,0.01
2014-7-27,104,92,84,61,47,28,46,26,10,29.99,29.92,2,0,7,0.00
2014-7-28,100,91,84,61,47,28,45,27,10,29.95,29.86,3,0,7,0.00
2014-7-29,98,89,84,66,52,30,52,31,10,29.88,29.81,5,1,11,0.00
2014-7-30,100,90,79,69,46,26,70,29,10,29.87,29.80,6,0,10,0.00
2014-7-31,100,89,81,44,35,24,27,16,10,29.88,29.81,4,1,8,0.00
2014-8-1,100,90,82,53,38,24,37,18,10,29.88,29.80,7,1,11,0.00
2014-8-2,102,89,80,69,51,30,69,35,10,29.86,29.76,13,1,21,0.00
2014-8-3,100,89,80,71,52,31,73,36,10,29.84,29.72,7,2,13,0.00
2014-8-4,101,87,82,67,57,30,59,40,10,29.86,29.75,4,0,11,0.00
2014-8-5,101,88,82,67,55,31,57,37,10,29.95,29.82,3,0,9,0.00
2014-8-6,104,89,77,85,53,29,94,37,10,29.95,29.86,2,0,6,0.20
2014-8-7,101,90,80,70,50,29,63,31,10,29.91,29.83,3,0,5,0.00
2014-8-8,103,90,80,70,50,28,68,33,10,29.94,29.83,3,0,7,0.00
2014-8-9,99,88,78,72,52,30,75,37,10,29.96,29.87,10,1,16,0.31
2014-8-11,100,92,81,65,42,27,59,24,10,29.95,29.88,3,1,8,0.01
2014-8-12,99,89,81,67,49,28,62,30,10,29.92,29.82,10,0,14,0.06
2014-8-13,93,85,83,60,56,47,43,38,22,29.90,29.84,2,0,6,0.00
2014-8-16,86,83,81,68,64,58,65,55,39,29.96,29.93,0,0,2,0.52
2014-8-17,101,89,80,74,54,28,77,39,10,29.99,29.91,2,0,4,0.00
2014-8-18,101,90,81,70,51,29,68,34,10,29.95,29.85,2,0,6,0.00
2014-8-19,102,91,82,68,49,29,60,30,10,29.93,29.83,3,0,8,0.00
2014-8-20,101,90,82,62,48,30,48,28,10,29.98,29.85,4,0,8,0.00
2014-8-21,102,90,80,66,53,28,58,35,10,30.00,29.90,14,2,19,0.00
2014-8-22,102,89,80,68,49,30,55,30,10,29.98,29.84,4,0,10,0.06
2014-8-23,102,90,80,65,47,28,58,29,10,29.88,29.72,6,1,11,0.00
2014-8-24,104,92,82,63,47,30,50,26,10,29.76,29.62,13,1,16,0.00
2014-8-25,94,87,81,70,52,26,69,37,10,29.72,29.62,14,8,21,0.00
2014-8-26,98,86,78,67,48,24,69,34,10,29.80,29.70,12,6,17,0.00
2014-8-27,101,88,78,65,48,28,64,32,10,29.85,29.77,8,3,13,0.00
2014-8-28,103,88,79,70,54,31,74,40,10,29.87,29.77,6,2,14,0.02
2014-8-29,99,87,79,75,56,28,81,42,10,29.95,29.82,5,1,8,0.05
2014-8-30,102,87,77,68,54,29,70,40,10,29.99,29.87,14,1,21,0.11
2014-8-31,104,87,77,73,56,28,81,44,10,29.99,29.89,14,1,22,0.14
2014-9-1,101,88,79,69,52,29,69,37,10,29.98,29.88,6,1,12,0.01
2014-9-2,99,87,76,74,54,30,85,41,10,29.96,29.82,8,1,12,0.22
2014-9-3,100,86,76,72,53,27,81,45,10,29.91,29.81,6,1,10,0.08
2014-9-4,101,87,78,72,53,28,79,41,10,29.98,29.87,4,1,8,0.02
2014-9-5,101,86,78,69,54,29,71,41,10,29.99,29.88,8,1,11,0.01
2014-9-6,101,86,77,67,51,28,71,38,10,29.94,29.81,4,1,8,0.00
2014-9-7,99,84,77,74,58,28,83,51,10,29.88,29.79,4,1,11,0.13
2014-9-8,101,85,77,70,56,28,71,43,10,29.93,29.83,4,1,8,0.01
2014-9-9,100,85,78,66,53,28,68,40,10,29.93,29.81,5,1,10,0.00
2014-9-10,100,86,78,69,50,27,74,37,10,29.89,29.78,6,2,14,0.00
2014-9-11,99,86,76,76,51,27,90,40,10,29.89,29.80,17,1,21,0.26
2014-9-12,93,84,78,74,59,37,85,48,15,29.87,29.74,14,4,17,0.01
2014-9-13,96,84,78,66,53,27,65,42,10,29.93,29.81,6,2,12,0.04
2014-9-14,95,84,76,70,56,28,79,46,10,30.00,29.89,6,1,14,0.01
2014-9-15,99,87,77,69,52,28,73,38,10,30.03,29.93,3,0,8,0.00
2014-9-16,100,87,80,64,49,27,54,33,10,29.99,29.84,7,1,11,0.00
2014-9-17,83,80,75,70,61,50,77,54,33,29.86,29.73,4,0,11,0.19
2014-9-18,98,85,76,71,53,28,81,43,10,29.81,29.72,4,1,8,0.00
2014-9-19,87,78,67,73,67,59,99,71,43,29.83,29.74,11,3,17,0.56
2014-9-20,91,79,73,78,63,26,99,67,11,29.81,29.72,7,1,10,0.26
2014-9-21,98,84,75,78,56,28,100,48,10,29.88,29.77,4,1,6,0.05
2014-9-22,89,77,73,78,71,51,100,83,35,29.91,29.82,5,0,12,1.10
2014-9-23,91,80,74,74,66,38,100,68,18,29.88,29.80,4,1,11,0.01
2014-9-24,96,81,74,72,62,29,91,62,10,29.93,29.85,9,4,13,0.00
2014-9-25,92,80,73,76,66,45,100,68,22,29.95,29.82,11,4,14,0.72
2014-9-26,99,85,76,75,59,29,90,55,10,29.87,29.77,8,2,11,0.02
2014-9-27,98,83,75,76,65,31,100,66,10,29.88,29.77,10,2,13,1.85
2014-9-28,99,83,76,80,65,26,99,66,10,29.88,29.75,6,2,11,0.01
2014-9-29,92,80,75,77,72,58,99,78,34,29.82,29.69,4,1,11,0.35
2014-9-30,96,83,77,82,69,41,100,69,16,29.73,29.65,3,0,9,0.24
2014-10-1,99,87,80,73,55,28,78,45,10,29.84,29.68,2,0,7,0.01
2014-10-2,97,85,78,79,58,27,100,50,10,29.91,29.80,6,1,9,0.00
2014-10-3,98,86,78,76,60,29,87,49,10,29.91,29.81,5,1,9,0.00
2014-10-4,94,80,72,80,58,16,100,57,10,29.84,29.72,7,1,16,0.99
2014-10-5,82,74,66,35,17,8,23,12,10,29.90,29.79,14,4,20,0.00
2014-10-6,89,77,66,60,38,11,58,30,10,29.94,29.84,10,3,14,0.00
2014-10-7,91,80,71,71,56,34,91,50,15,29.95,29.85,7,1,13,0.53
2014-10-8,97,82,73,68,52,25,84,46,10,30.00,29.88,4,1,7,0.00
2014-10-9,94,83,75,66,46,23,72,36,10,29.96,29.84,8,2,12,0.00
2014-10-10,101,84,74,67,49,26,79,37,10,29.93,29.82,4,1,8,0.00
2014-10-11,96,84,75,70,51,26,81,41,10,29.91,29.82,8,1,11,0.00
2014-10-12,98,84,74,69,50,26,78,39,10,29.92,29.84,5,1,10,0.00
2014-10-13,97,83,76,73,56,27,87,47,10,29.93,29.82,7,1,14,0.24
2014-10-14,88,79,73,77,68,58,100,71,38,29.90,29.76,6,2,15,0.41
2014-10-15,92,80,72,78,53,23,100,52,10,29.85,29.77,4,1,11,0.04
2014-10-16,91,80,72,42,29,17,32,17,10,29.85,29.76,4,1,11,0.00
2014-10-17,89,77,69,50,30,14,46,20,10,29.88,29.79,6,2,9,0.00
2014-10-18,91,78,68,56,38,19,56,29,10,29.87,29.78,4,1,8,0.00
2014-10-19,93,80,71,62,41,20,67,32,10,29.89,29.81,6,1,10,0.00
2014-10-20,96,81,71,62,42,20,73,32,10,29.90,29.79,4,1,8,0.00
2014-10-21,92,80,74,59,43,21,59,32,10,29.83,29.75,5,1,8,0.00
2014-10-22,94,79,72,62,44,20,68,35,10,29.85,29.76,12,3,15,0.00
2014-10-23,86,76,68,53,34,16,51,26,10,29.84,29.73,12,6,19,0.00
2014-10-24,84,74,67,47,35,16,46,28,10,29.84,29.73,14,5,17,0.00
2014-10-25,86,74,67,44,28,13,40,20,10,29.86,29.78,8,3,12,0.00
2014-10-26,90,75,67,48,30,12,50,24,10,29.90,29.80,8,2,12,0.00
2014-10-27,93,77,66,51,34,16,50,26,10,29.96,29.86,5,1,8,0.00
2014-10-28,96,80,69,60,41,18,70,33,10,30.02,29.92,7,1,9,0.00
2014-10-29,93,80,71,66,46,23,71,38,10,29.96,29.85,4,0,7,0.00
2014-10-30,96,80,72,66,48,21,75,40,10,29.87,29.73,3,0,5,0.00
2014-10-31,84,75,70,62,31,11,65,27,10,29.80,29.68,4,2,12,0.00
2014-11-1,74,68,58,29,11,4,22,11,10,30.06,29.75,13,4,19,0.00
2014-11-2,75,60,53,27,11,0,30,15,10,30.18,30.06,11,4,17,0.00
2014-11-3,79,65,54,36,16,0,35,16,10,30.23,30.12,10,5,14,0.00
2014-11-4,85,71,60,50,34,16,52,31,10,30.17,30.01,9,3,13,0.00
2014-11-5,90,74,66,53,39,18,61,34,10,30.08,29.94,4,2,8,0.00
2014-11-6,93,76,68,64,46,21,80,43,10,30.00,29.85,5,1,7,0.00
2014-11-7,88,73,65,67,41,16,89,42,10,29.87,29.77,7,1,11,0.00
2014-11-8,82,67,60,57,36,13,83,40,10,29.83,29.72,12,2,16,0.53
2014-11-9,71,64,59,58,51,37,91,65,31,29.83,29.69,11,3,14,0.27
2014-11-10,82,70,63,54,36,11,66,37,10,29.86,29.78,6,2,12,0.00
2014-11-11,83,71,62,58,36,13,78,37,10,29.85,29.77,4,1,12,0.00
2014-11-12,85,71,63,50,33,11,58,31,10,29.93,29.82,4,1,8,0.00
2014-11-13,87,71,62,52,36,12,67,35,10,29.94,29.84,4,1,11,0.00
2014-11-14,74,66,61,60,38,8,76,43,10,30.02,29.86,7,2,14,0.00
2014-11-15,83,66,56,49,31,11,55,31,10,30.10,29.98,10,3,14,0.00
2014-11-16,90,73,62,61,47,20,86,50,10,30.06,29.88,5,1,8,0.00
2014-11-17,82,72,68,70,64,55,100,77,41,29.89,29.76,5,1,13,0.80
2014-11-18,68,57,51,68,31,2,99,43,14,30.17,29.85,12,5,21,0.01
2014-11-19,65,53,45,33,13,-3,48,21,10,30.22,30.09,13,6,21,0.00
2014-11-20,72,58,50,39,18,1,62,26,10,30.14,30.01,12,6,17,0.00
2014-11-21,72,64,57,49,24,7,59,23,10,30.12,30.03,14,7,17,0.01
2014-11-22,79,71,63,60,52,43,68,52,29,30.07,29.90,8,3,12,0.00
2014-11-23,83,75,70,73,62,52,100,68,36,29.90,29.72,8,3,17,0.00
2014-11-24,74,72,71,74,72,71,99,99,99,29.83,29.75,5,2,11,0.00
2014-12-10,76,62,56,60,48,11,99,76,10,29.95,29.90,3,1,8,0.96
2014-12-11,75,61,53,61,50,12,99,80,10,30.05,29.93,9,1,12,0.00
2014-12-12,62,57,53,58,37,2,99,62,10,30.13,30.00,8,2,11,0.00
2014-12-13,75,61,50,58,40,9,100,62,10,30.04,29.93,7,2,10,0.00
2014-12-14,79,62,54,61,43,7,100,69,10,29.97,29.87,5,1,8,0.00
2014-12-15,81,62,53,64,50,16,100,78,10,29.99,29.89,3,0,4,0.00
2014-12-16,79,64,54,71,60,50,99,89,36,30.04,29.96,2,0,7,0.01
2014-12-17,84,67,60,72,61,19,100,87,10,30.05,29.93,3,0,6,0.00
2014-12-18,80,64,55,66,54,16,100,82,10,30.03,29.91,3,1,8,0.00
2014-12-19,82,64,55,64,51,14,99,76,10,29.98,29.85,6,2,8,0.00
2014-12-20,84,70,60,71,60,20,100,79,10,29.93,29.84,4,1,8,0.00
2014-12-21,83,70,64,76,69,63,100,96,55,29.91,29.80,6,2,13,0.01
2014-12-22,79,72,69,77,71,68,100,99,88,29.85,29.71,8,2,20,0.02
2014-12-23,82,74,69,82,73,69,99,99,99,29.77,29.67,8,3,17,0.00
2014-12-24,78,73,67,78,73,67,99,99,99,29.81,29.63,8,3,17,0.11
2014-12-25,75,66,60,67,63,15,100,91,20,30.05,29.80,11,3,17,0.00
2014-12-26,75,66,57,70,60,35,100,83,26,30.07,29.99,11,5,14,0.00
2014-12-27,89,72,66,79,68,48,100,90,26,30.09,29.96,7,2,9,0.00
2014-12-28,87,74,67,83,71,66,100,91,49,30.00,29.90,3,0,8,0.00
2014-12-29,84,73,68,81,73,67,100,98,79,29.97,29.86,4,1,9,0.00
2014-12-30,74,70,68,74,70,68,99,99,99,30.03,29.91,11,2,14,0.04
2014-12-31,71,66,64,71,66,63,99,99,99,30.10,29.99,13,6,18,0.00
2015-1-1,76,67,61,75,67,61,99,99,99,30.08,29.95,10,4,14,0.00
2015-1-2,86,72,66,83,72,66,100,98,66,30.08,29.84,6,2,8,0.00